createdAt,value
2023-02-21T00:00:42.576Z,12.25
2023-02-21T00:03:12.636Z,12.22
2023-02-21T00:05:42.967Z,12.22
2023-02-21T00:08:13.142Z,12.25
2023-02-21T00:10:43.193Z,12.26
2023-02-21T00:13:13.539Z,12.23
2023-02-21T00:15:43.532Z,12.24
2023-02-21T00:18:13.489Z,12.23
2023-02-21T00:20:43.651Z,12.29
2023-02-21T00:23:14.321Z,12.28
2023-02-21T00:25:44.439Z,12.32
2023-02-21T00:28:14.565Z,12.33
2023-02-21T00:30:44.764Z,12.33
2023-02-21T00:33:15.889Z,12.33
2023-02-21T00:35:47.248Z,12.31
2023-02-21T00:38:17.671Z,12.32
2023-02-21T00:40:48.928Z,12.33
2023-02-21T00:43:20.872Z,12.34
2023-02-21T00:45:51.903Z,12.35
2023-02-21T00:48:25.570Z,12.35
2023-02-21T00:50:55.569Z,12.33
2023-02-21T00:53:27.596Z,12.34
2023-02-21T00:55:57.608Z,12.33
2023-02-21T00:58:27.558Z,12.33
2023-02-21T01:00:57.652Z,12.34
2023-02-21T01:03:27.784Z,12.35
2023-02-21T01:05:58.116Z,12.33
2023-02-21T01:08:28.278Z,12.33
2023-02-21T01:11:20.134Z,12.34
2023-02-21T01:13:50.311Z,12.36
2023-02-21T01:16:20.435Z,12.37
2023-02-21T01:18:50.591Z,12.37
2023-02-21T01:21:21.715Z,12.36
2023-02-21T01:23:51.851Z,12.36
2023-02-21T01:26:21.994Z,12.37
2023-02-21T01:28:52.134Z,12.38
2023-02-21T01:31:23.174Z,12.37
2023-02-21T01:33:53.373Z,12.37
2023-02-21T01:36:23.477Z,12.38
2023-02-21T01:38:53.871Z,12.39
2023-02-21T01:41:24.500Z,12.37
2023-02-21T01:43:57.735Z,12.36
2023-02-21T01:46:27.946Z,12.36
2023-02-21T01:48:58.825Z,12.35
2023-02-21T01:51:31.838Z,12.31
2023-02-21T01:54:02.290Z,12.29
2023-02-21T01:56:33.777Z,12.31
2023-02-21T01:59:05.276Z,12.30
2023-02-21T02:01:42.558Z,12.30
2023-02-21T02:04:12.798Z,12.29
2023-02-21T02:06:42.932Z,12.26
2023-02-21T02:09:16.120Z,12.26
2023-02-21T02:11:49.280Z,12.26
2023-02-21T02:14:17.792Z,12.23
2023-02-21T02:16:47.961Z,12.21
2023-02-21T02:19:28.833Z,12.17
2023-02-21T02:21:58.998Z,12.17
2023-02-21T02:24:29.119Z,12.16
2023-02-21T02:26:57.652Z,12.15
2023-02-21T02:29:27.751Z,12.16
2023-02-21T02:31:57.955Z,12.17
2023-02-21T02:34:25.403Z,12.18
2023-02-21T02:36:58.050Z,12.18
2023-02-21T02:39:28.181Z,12.15
2023-02-21T02:41:58.678Z,12.18
2023-02-21T02:44:30.251Z,12.18
2023-02-21T02:46:59.986Z,12.18
2023-02-21T02:49:29.093Z,12.19
2023-02-21T02:51:56.308Z,12.19
2023-02-21T02:54:23.395Z,12.16
2023-02-21T02:56:50.468Z,12.16
2023-02-21T02:59:20.810Z,12.17
2023-02-21T03:01:48.344Z,12.15
2023-02-21T03:04:15.783Z,12.12
2023-02-21T03:06:45.896Z,12.09
2023-02-21T03:09:14.381Z,12.09
2023-02-21T03:11:45.570Z,12.07
2023-02-21T03:14:15.248Z,12.06
2023-02-21T03:16:47.764Z,12.01
2023-02-21T03:19:17.920Z,12.00
2023-02-21T03:21:49.821Z,11.97
2023-02-21T03:24:18.146Z,11.98
2023-02-21T03:26:47.993Z,11.97
2023-02-21T03:29:16.208Z,11.94
2023-02-21T03:31:46.969Z,11.93
2023-02-21T03:34:14.328Z,11.94
2023-02-21T03:36:42.250Z,11.94
2023-02-21T03:39:09.318Z,11.95
2023-02-21T03:41:36.627Z,11.95
2023-02-21T03:44:03.668Z,11.92
2023-02-21T03:46:30.842Z,11.89
2023-02-21T03:48:59.126Z,11.88
2023-02-21T03:51:26.292Z,11.87
2023-02-21T03:53:53.349Z,11.87
2023-02-21T03:56:21.709Z,11.87
2023-02-21T03:58:48.966Z,11.88
2023-02-21T04:01:16.601Z,11.89
2023-02-21T04:03:44.032Z,11.90
2023-02-21T04:06:11.009Z,11.89
2023-02-21T04:08:38.238Z,11.89
2023-02-21T04:11:05.576Z,11.89
2023-02-21T04:13:32.621Z,11.90
2023-02-21T04:15:59.658Z,11.91
2023-02-21T04:18:26.632Z,11.90
2023-02-21T04:20:53.996Z,11.90
2023-02-21T04:23:22.618Z,11.90
2023-02-21T04:25:49.657Z,11.91
2023-02-21T04:28:16.722Z,11.87
2023-02-21T04:30:43.954Z,11.88
2023-02-21T04:33:11.080Z,11.88
2023-02-21T04:35:38.132Z,11.88
2023-02-21T04:38:05.315Z,11.88
2023-02-21T04:40:32.317Z,11.87
2023-02-21T04:42:59.455Z,11.85
2023-02-21T04:45:26.523Z,11.85
2023-02-21T04:47:53.712Z,11.80
2023-02-21T04:50:20.832Z,11.78
2023-02-21T04:52:48.183Z,11.76
2023-02-21T04:55:15.720Z,11.76
2023-02-21T04:57:42.736Z,11.75
2023-02-21T05:00:11.384Z,11.75
2023-02-21T05:02:38.517Z,11.73
2023-02-21T05:05:05.688Z,11.73
2023-02-21T05:07:32.758Z,11.73
2023-02-21T05:09:59.799Z,11.73
2023-02-21T05:12:26.990Z,11.75
2023-02-21T05:14:54.063Z,11.73
2023-02-21T05:17:21.132Z,11.74
2023-02-21T05:19:48.355Z,11.74
2023-02-21T05:22:20.773Z,11.75
2023-02-21T05:24:49.419Z,11.72
2023-02-21T05:27:17.872Z,11.71
2023-02-21T05:29:48.342Z,11.70
2023-02-21T05:32:15.789Z,11.68
2023-02-21T05:34:45.040Z,11.66
2023-02-21T05:37:12.293Z,11.61
2023-02-21T05:39:39.573Z,11.56
2023-02-21T05:42:06.674Z,11.53
2023-02-21T05:44:33.922Z,11.53
2023-02-21T05:47:02.737Z,11.52
2023-02-21T05:49:29.810Z,11.53
2023-02-21T05:51:56.974Z,11.53
2023-02-21T05:54:24.153Z,11.54
2023-02-21T05:56:52.675Z,11.53
2023-02-21T05:59:21.309Z,11.51
2023-02-21T06:01:48.891Z,11.49
2023-02-21T06:04:16.349Z,11.51
2023-02-21T06:06:43.809Z,11.50
2023-02-21T06:09:11.268Z,11.49
2023-02-21T06:11:39.540Z,11.49
2023-02-21T06:14:09.213Z,11.50
2023-02-21T06:16:38.118Z,11.49
2023-02-21T06:19:06.744Z,11.48
2023-02-21T06:21:34.112Z,11.48
2023-02-21T06:24:01.244Z,11.49
2023-02-21T06:26:28.688Z,11.46
2023-02-21T06:28:55.821Z,11.44
2023-02-21T06:31:22.961Z,11.38
2023-02-21T06:33:50.674Z,11.33
2023-02-21T06:36:21.211Z,11.29
2023-02-21T06:38:51.590Z,11.26
2023-02-21T06:41:19.775Z,11.20
2023-02-21T06:43:46.836Z,11.18
2023-02-21T06:46:17.297Z,11.18
2023-02-21T06:48:44.478Z,11.18
2023-02-21T06:51:11.798Z,11.17
2023-02-21T06:53:39.228Z,11.18
2023-02-21T06:56:07.349Z,11.18
2023-02-21T06:58:34.578Z,11.16
2023-02-21T07:01:01.870Z,11.14
2023-02-21T07:03:28.956Z,11.13
2023-02-21T07:05:56.458Z,11.18
2023-02-21T07:08:23.492Z,11.22
2023-02-21T07:10:50.830Z,11.22
2023-02-21T07:13:17.851Z,11.21
2023-02-21T07:15:45.748Z,11.20
2023-02-21T07:18:12.886Z,11.20
2023-02-21T07:23:05.751Z,11.18
2023-02-21T07:25:32.933Z,11.18
2023-02-21T07:27:59.975Z,11.18
2023-02-21T07:30:27.114Z,11.19
2023-02-21T07:35:42.111Z,11.17
2023-02-21T07:38:09.194Z,11.14
2023-02-21T07:40:36.212Z,11.13
2023-02-21T07:43:03.274Z,11.14
2023-02-21T07:45:30.457Z,11.15
2023-02-21T07:47:57.557Z,11.17
2023-02-21T07:50:24.552Z,11.20
2023-02-21T07:52:51.816Z,11.18
2023-02-21T07:55:19.192Z,11.21
2023-02-21T07:57:46.704Z,11.26
2023-02-21T08:00:14.330Z,11.27
2023-02-21T08:02:41.442Z,11.25
2023-02-21T08:05:09.244Z,11.23
2023-02-21T08:07:36.610Z,11.25
2023-02-21T08:10:05.601Z,11.30
2023-02-21T08:12:32.833Z,11.32
2023-02-21T08:15:00.320Z,11.34
2023-02-21T08:17:27.568Z,11.35
2023-02-21T08:19:54.666Z,11.39
2023-02-21T08:22:21.930Z,11.40
2023-02-21T08:24:50.951Z,11.41
2023-02-21T08:27:19.257Z,11.41
2023-02-21T08:29:50.391Z,11.42
2023-02-21T08:32:18.192Z,11.42
2023-02-21T08:34:46.142Z,11.40
2023-02-21T08:37:16.271Z,11.41
2023-02-21T08:39:46.012Z,11.39
2023-02-21T08:42:13.938Z,11.63
2023-02-21T08:44:43.447Z,11.66
2023-02-21T08:47:10.644Z,11.66
2023-02-21T08:49:40.431Z,11.61
2023-02-21T08:52:10.454Z,11.58
2023-02-21T08:54:38.355Z,11.60
2023-02-21T08:57:05.526Z,11.62
2023-02-21T08:59:34.510Z,11.63
2023-02-21T09:02:02.647Z,11.64
2023-02-21T09:04:29.889Z,11.67
2023-02-21T09:06:57.193Z,11.64
2023-02-21T09:09:24.326Z,11.58
2023-02-21T09:11:51.515Z,11.58
2023-02-21T09:14:18.667Z,11.58
2023-02-21T09:16:47.747Z,11.57
2023-02-21T09:19:15.154Z,11.61
2023-02-21T09:21:47.980Z,11.61
2023-02-21T09:24:15.107Z,11.66
2023-02-21T09:26:42.842Z,11.70
2023-02-21T09:29:12.594Z,11.72
2023-02-21T09:31:39.706Z,11.79
2023-02-21T09:34:07.008Z,11.83
2023-02-21T09:36:37.339Z,11.87
2023-02-21T09:39:07.452Z,11.94
2023-02-21T09:41:35.889Z,11.96
2023-02-21T09:44:04.901Z,11.95
2023-02-21T09:46:35.518Z,11.92
2023-02-21T09:49:05.677Z,11.93
2023-02-21T09:51:34.055Z,11.92
2023-02-21T09:54:02.482Z,11.94
2023-02-21T09:56:29.872Z,11.94
2023-02-21T09:58:59.248Z,11.99
2023-02-21T10:01:30.392Z,12.00
2023-02-21T10:04:06.106Z,11.97
2023-02-21T10:06:40.207Z,12.01
2023-02-21T10:09:09.654Z,12.04
2023-02-21T10:11:37.155Z,12.07
2023-02-21T10:14:04.707Z,12.11
2023-02-21T10:16:36.012Z,12.09
2023-02-21T10:19:06.772Z,12.15
2023-02-21T10:21:36.632Z,12.18
2023-02-21T10:24:11.170Z,12.22
2023-02-21T10:26:43.188Z,12.26
2023-02-21T10:29:13.521Z,12.27
2023-02-21T10:31:41.772Z,12.31
2023-02-21T10:34:17.086Z,12.32
2023-02-21T10:37:00.758Z,12.38
2023-02-21T10:39:35.405Z,12.43
2023-02-21T10:42:02.739Z,12.46
2023-02-21T10:44:32.340Z,12.47
2023-02-21T10:47:00.000Z,12.53
2023-02-21T10:49:29.967Z,12.58
2023-02-21T10:52:04.656Z,12.58
2023-02-21T10:54:34.196Z,12.59
2023-02-21T10:57:03.683Z,12.58
2023-02-21T10:59:34.042Z,12.61
2023-02-21T11:02:02.718Z,12.60
2023-02-21T11:04:35.237Z,12.63
2023-02-21T11:07:05.699Z,12.65
2023-02-21T11:09:39.275Z,12.64
2023-02-21T11:12:08.012Z,12.61
2023-02-21T11:14:35.789Z,12.62
2023-02-21T11:17:14.292Z,12.64
2023-02-21T11:19:43.844Z,12.70
2023-02-21T11:22:11.276Z,12.75
2023-02-21T11:24:41.646Z,12.79
2023-02-21T11:27:08.781Z,12.82
2023-02-21T11:29:36.814Z,12.80
2023-02-21T11:32:12.917Z,12.79
2023-02-21T11:34:48.678Z,12.82
2023-02-21T11:37:16.527Z,12.85
2023-02-21T11:39:50.896Z,12.84
2023-02-21T11:42:21.156Z,12.86
2023-02-21T11:44:48.922Z,12.88
2023-02-21T11:47:19.129Z,12.91
2023-02-21T11:49:52.115Z,12.93
2023-02-21T11:52:23.539Z,12.96
2023-02-21T11:54:50.868Z,13.00
2023-02-21T11:57:21.072Z,13.00
2023-02-21T11:59:57.249Z,13.04
2023-02-21T12:02:26.697Z,13.07
2023-02-21T12:04:57.230Z,13.11
2023-02-21T12:07:31.967Z,13.17
2023-02-21T12:10:02.776Z,13.19
2023-02-21T12:12:35.469Z,13.20
2023-02-21T12:15:03.622Z,13.26
2023-02-21T12:17:32.147Z,13.31
2023-02-21T12:20:07.012Z,13.32
2023-02-21T12:22:34.526Z,13.32
2023-02-21T12:25:04.712Z,13.28
2023-02-21T12:27:32.345Z,13.27
2023-02-21T12:30:02.553Z,13.29
2023-02-21T12:32:32.812Z,13.30
2023-02-21T12:35:03.529Z,13.28
2023-02-21T12:37:41.314Z,13.36
2023-02-21T12:40:09.052Z,13.45
2023-02-21T12:42:37.597Z,13.50
2023-02-21T12:45:06.045Z,13.53
2023-02-21T12:47:37.376Z,13.55
2023-02-21T12:50:08.333Z,13.57
2023-02-21T12:52:42.640Z,13.58
2023-02-21T12:55:15.362Z,13.55
2023-02-21T12:57:51.163Z,13.48
2023-02-21T13:00:18.736Z,13.47
2023-02-21T13:02:49.290Z,13.48
2023-02-21T13:05:19.928Z,13.44
2023-02-21T13:07:50.269Z,13.42
2023-02-21T13:10:21.351Z,13.42
2023-02-21T13:12:51.051Z,13.44
2023-02-21T13:15:22.478Z,13.44
2023-02-21T13:17:56.519Z,13.45
2023-02-21T13:20:26.290Z,13.45
2023-02-21T13:22:59.668Z,13.43
2023-02-21T13:25:30.148Z,13.44
2023-02-21T13:28:05.042Z,13.40
2023-02-21T13:30:38.270Z,13.33
2023-02-21T13:33:41.577Z,13.32
2023-02-21T13:36:14.749Z,13.32
2023-02-21T13:39:01.665Z,13.33
2023-02-21T13:41:35.515Z,13.32
2023-02-21T13:44:08.410Z,13.33
2023-02-21T13:46:35.901Z,13.31
2023-02-21T13:49:06.992Z,13.29
2023-02-21T13:51:37.100Z,13.30
2023-02-21T13:54:07.156Z,13.30
2023-02-21T13:56:37.383Z,13.26
2023-02-21T13:59:07.573Z,13.25
2023-02-21T14:01:36.403Z,13.25
2023-02-21T14:04:23.382Z,13.23
2023-02-21T14:06:53.611Z,13.24
2023-02-21T14:09:20.854Z,13.27
2023-02-21T14:11:49.646Z,13.30
2023-02-21T14:14:19.855Z,13.27
2023-02-21T14:16:51.804Z,13.22
2023-02-21T14:19:22.010Z,13.21
2023-02-21T14:21:51.867Z,13.21
2023-02-21T14:24:27.020Z,13.23
2023-02-21T14:26:58.062Z,13.20
2023-02-21T14:29:28.426Z,13.20
2023-02-21T14:32:15.524Z,13.23
2023-02-21T14:34:45.751Z,13.21
2023-02-21T14:37:21.109Z,13.21
2023-02-21T14:39:51.022Z,13.15
2023-02-21T14:42:21.858Z,13.15
2023-02-21T14:44:49.491Z,13.13
2023-02-21T14:47:18.876Z,13.13
2023-02-21T14:49:53.032Z,13.09
2023-02-21T14:52:24.276Z,13.06
2023-02-21T14:54:54.621Z,12.96
2023-02-21T14:57:25.015Z,12.92
2023-02-21T14:59:52.412Z,12.87
2023-02-21T15:02:22.594Z,12.88
2023-02-21T15:04:52.715Z,12.84
2023-02-21T15:07:23.027Z,12.84
2023-02-21T15:09:53.357Z,12.83
2023-02-21T15:12:20.712Z,12.82
2023-02-21T15:14:50.913Z,12.78
2023-02-21T15:17:20.345Z,12.78
2023-02-21T15:19:47.928Z,12.80
2023-02-21T15:22:18.456Z,12.77
2023-02-21T15:24:49.173Z,12.77
2023-02-21T15:27:16.742Z,12.77
2023-02-21T15:29:45.401Z,12.75
2023-02-21T15:32:13.986Z,12.71
2023-02-21T15:34:43.209Z,12.71
2023-02-21T15:37:13.370Z,12.67
2023-02-21T15:39:42.439Z,12.64
2023-02-21T15:42:12.149Z,12.64
2023-02-21T15:45:08.864Z,12.62
2023-02-21T15:47:49.429Z,12.59
2023-02-21T15:50:20.831Z,12.61
2023-02-21T15:52:54.738Z,12.59
2023-02-21T15:55:23.208Z,12.56
2023-02-21T15:57:53.173Z,12.54
2023-02-21T16:00:23.188Z,12.54
2023-02-21T16:02:50.160Z,12.53
2023-02-21T16:05:20.377Z,12.52
2023-02-21T16:07:51.573Z,12.48
2023-02-21T16:10:21.077Z,12.47
2023-02-21T16:12:54.289Z,12.40
2023-02-21T16:15:22.515Z,12.34
2023-02-21T16:17:52.649Z,12.34
2023-02-21T16:20:22.768Z,12.33
2023-02-21T16:23:07.134Z,12.35
2023-02-21T16:25:35.067Z,12.36
2023-02-21T16:28:02.445Z,12.37
2023-02-21T16:30:30.865Z,12.38
2023-02-21T16:33:00.547Z,12.39
2023-02-21T16:35:28.037Z,12.39
2023-02-21T16:37:56.563Z,12.36
2023-02-21T16:40:26.108Z,12.37
2023-02-21T16:42:53.914Z,12.39
2023-02-21T16:45:21.796Z,12.37
2023-02-21T16:47:50.093Z,12.34
2023-02-21T16:50:19.404Z,12.33
2023-02-21T16:52:46.522Z,12.32
2023-02-21T16:55:15.847Z,12.32
2023-02-21T16:57:43.027Z,12.28
2023-02-21T17:00:10.337Z,12.25
2023-02-21T17:02:37.762Z,12.22
2023-02-21T17:05:04.769Z,12.22
2023-02-21T17:07:31.708Z,12.19
2023-02-21T17:09:58.845Z,12.15
2023-02-21T17:12:25.925Z,12.13
2023-02-21T17:14:52.988Z,12.11
2023-02-21T17:17:21.297Z,12.11
2023-02-21T17:19:48.300Z,12.04
2023-02-21T17:22:15.627Z,11.99
2023-02-21T17:24:43.530Z,11.92
2023-02-21T17:27:13.085Z,11.87
2023-02-21T17:29:40.188Z,11.81
2023-02-21T17:32:07.406Z,11.75
2023-02-21T17:34:35.066Z,11.71
2023-02-21T17:37:02.634Z,11.71
2023-02-21T17:39:29.940Z,11.68
2023-02-21T17:41:57.252Z,11.64
2023-02-21T17:44:27.038Z,11.60
2023-02-21T17:46:56.240Z,11.57
2023-02-21T17:49:25.222Z,11.56
2023-02-21T17:51:52.649Z,11.55
2023-02-21T17:54:21.522Z,11.52
2023-02-21T17:56:48.784Z,11.50
2023-02-21T17:59:16.334Z,11.52
2023-02-21T18:01:43.602Z,11.50
2023-02-21T18:04:11.153Z,11.47
2023-02-21T18:06:38.278Z,11.46
2023-02-21T18:09:07.896Z,11.44
2023-02-21T18:11:36.358Z,11.39
2023-02-21T18:14:03.953Z,11.41
2023-02-21T18:16:30.872Z,11.41
2023-02-21T18:18:58.219Z,11.39
2023-02-21T18:21:28.487Z,11.36
2023-02-21T18:23:56.045Z,11.32
2023-02-21T18:26:22.993Z,11.30
2023-02-21T18:28:50.411Z,11.28
2023-02-21T18:31:19.413Z,11.27
2023-02-21T18:33:46.759Z,11.24
2023-02-21T18:36:13.652Z,11.19
2023-02-21T18:38:41.313Z,11.14
2023-02-21T18:41:09.916Z,11.11
2023-02-21T18:43:36.914Z,11.10
2023-02-21T18:46:04.353Z,11.07
2023-02-21T18:48:31.158Z,11.06
2023-02-21T18:50:58.334Z,11.06
2023-02-21T18:53:25.255Z,11.07
2023-02-21T18:55:52.136Z,11.06
2023-02-21T18:58:19.225Z,11.05
2023-02-21T19:00:47.380Z,11.07
2023-02-21T19:03:14.204Z,11.10
2023-02-21T19:05:41.112Z,11.11
2023-02-21T19:08:08.013Z,11.10
2023-02-21T19:10:35.007Z,11.12
2023-02-21T19:13:02.406Z,11.10
2023-02-21T19:15:30.907Z,11.05
2023-02-21T19:17:58.399Z,11.04
2023-02-21T19:20:25.620Z,11.08
2023-02-21T19:22:52.859Z,11.09
2023-02-21T19:25:19.654Z,11.09
2023-02-21T19:27:46.586Z,11.09
2023-02-21T19:30:14.052Z,11.09
2023-02-21T19:32:40.934Z,11.08
2023-02-21T19:35:08.592Z,11.09
2023-02-21T19:37:36.281Z,11.09
2023-02-21T19:40:07.690Z,11.11
2023-02-21T19:42:35.226Z,11.11
2023-02-21T19:45:02.215Z,11.11
2023-02-21T19:47:29.667Z,11.12
2023-02-21T19:49:56.626Z,11.12
2023-02-21T19:52:23.477Z,11.07
2023-02-21T19:54:50.332Z,11.06
2023-02-21T19:57:17.466Z,11.05
2023-02-21T19:59:44.553Z,11.05
2023-02-21T20:02:12.511Z,11.03
2023-02-21T20:04:42.403Z,11.03
2023-02-21T20:07:11.615Z,11.00
2023-02-21T20:09:39.824Z,10.98
2023-02-21T20:12:08.598Z,10.96
2023-02-21T20:14:36.772Z,10.90
2023-02-21T20:17:05.712Z,10.90
2023-02-21T20:19:35.032Z,10.87
2023-02-21T20:22:02.027Z,10.86
2023-02-21T20:24:28.815Z,10.83
2023-02-21T20:26:55.737Z,10.81
2023-02-21T20:29:23.657Z,10.84
2023-02-21T20:31:50.709Z,10.81
2023-02-21T20:34:17.860Z,10.82
2023-02-21T20:36:45.517Z,10.81
2023-02-21T20:39:19.756Z,10.81
2023-02-21T20:41:46.657Z,10.83
2023-02-21T20:44:13.508Z,10.83
2023-02-21T20:46:40.319Z,10.85
2023-02-21T20:49:07.336Z,10.85
2023-02-21T20:51:35.992Z,10.83
2023-02-21T20:54:04.992Z,10.82
2023-02-21T20:56:34.115Z,10.77
2023-02-21T20:59:01.849Z,10.65
2023-02-21T21:01:28.751Z,10.62
2023-02-21T21:03:57.342Z,10.61
2023-02-21T21:06:24.425Z,10.64
2023-02-21T21:08:51.227Z,10.62
2023-02-21T21:11:18.590Z,10.59
2023-02-21T21:13:48.052Z,10.56
2023-02-21T21:16:15.790Z,10.52
2023-02-21T21:18:43.301Z,10.57
2023-02-21T21:21:11.072Z,10.61
2023-02-21T21:23:37.822Z,10.61
2023-02-21T21:26:08.702Z,10.60
2023-02-21T21:28:35.970Z,10.62
2023-02-21T21:31:03.635Z,10.62
2023-02-21T21:33:30.416Z,10.61
2023-02-21T21:36:00.395Z,10.57
2023-02-21T21:38:28.511Z,10.56
2023-02-21T21:40:56.971Z,10.58
2023-02-21T21:43:24.248Z,10.54
2023-02-21T21:45:51.298Z,10.51
2023-02-21T21:48:18.807Z,10.46
2023-02-21T21:50:45.745Z,10.48
2023-02-21T21:53:12.703Z,10.46
2023-02-21T21:55:39.575Z,10.44
2023-02-21T21:58:12.311Z,10.35
2023-02-21T22:00:42.254Z,10.33
2023-02-21T22:03:10.256Z,10.29
2023-02-21T22:05:36.986Z,10.27
2023-02-21T22:08:03.852Z,10.22
2023-02-21T22:10:30.643Z,10.18
2023-02-21T22:13:00.051Z,10.18
2023-02-21T22:15:28.071Z,10.15
2023-02-21T22:17:55.541Z,10.17
2023-02-21T22:20:28.552Z,10.17
2023-02-21T22:22:58.852Z,10.19
2023-02-21T22:25:27.851Z,10.13
2023-02-21T22:27:54.865Z,10.11
2023-02-21T22:30:22.028Z,10.10
2023-02-21T22:32:49.249Z,10.07
2023-02-21T22:35:18.591Z,10.06
2023-02-21T22:37:48.502Z,10.06
2023-02-21T22:40:18.455Z,10.07
2023-02-21T22:42:45.665Z,10.07
2023-02-21T22:45:12.511Z,10.08
2023-02-21T22:47:39.521Z,10.10
2023-02-21T22:50:06.761Z,10.10
2023-02-21T22:52:33.650Z,10.08
2023-02-21T22:55:00.556Z,10.07
2023-02-21T22:57:27.796Z,10.11
2023-02-21T22:59:56.088Z,10.12
2023-02-21T23:02:23.056Z,10.15
2023-02-21T23:04:49.919Z,10.16
2023-02-21T23:07:17.604Z,10.13
2023-02-21T23:09:45.697Z,10.11
2023-02-21T23:12:15.302Z,10.14
2023-02-21T23:14:42.870Z,10.15
2023-02-21T23:17:09.778Z,10.17
2023-02-21T23:19:36.729Z,10.19
2023-02-21T23:22:05.563Z,10.18
2023-02-21T23:24:32.610Z,10.13
2023-02-21T23:26:59.502Z,10.11
2023-02-21T23:29:26.783Z,10.12
2023-02-21T23:31:58.355Z,10.14
2023-02-21T23:34:40.640Z,10.13
2023-02-21T23:37:08.669Z,10.11
2023-02-21T23:39:41.161Z,10.11
2023-02-21T23:42:07.973Z,10.12
2023-02-21T23:44:36.365Z,10.09
2023-02-21T23:47:06.221Z,10.09
2023-02-21T23:49:33.539Z,10.10
2023-02-21T23:52:02.089Z,10.14
2023-02-21T23:54:29.169Z,10.17
2023-02-21T23:57:01.018Z,10.20
2023-02-21T23:59:28.244Z,10.23
